Dades meteomassalio
Diari Summary for Agost 18, 2017 Units:  English    Metric   Both
« Previous Day
Next Day »
Diari Semanal Mensual Anual Personalitzat
  Maxima: Minima: Mijana:
Temperatura: TemperatureC °F 19.7 °F 27.9 °F
Rosada: DewpointC °F 14.2 °F 17.3 °F
Humitat: Humidity % 29 % 55 %
Velocitat del vent: WindSpeedKMH mph 0.0 mph 9.7 mph
Racha vent: WindSpeedGustKMH mph - -
Vent:- - South
Pressio: PressurehPa in 1011.7 in -
Pluja: 0.0 in    
Historical Graphs
 
 
Tabular Data for Agost 18, 2017
Time Temperature Dew Point Pressure Wind Wind Speed Wind Gust Humidity Rainfall Rate (Hourly) solar Conditions
TemperatureC °F DewpointC °F PressurehPa in Calm     Humidity % HourlyPrecipMM in SolarRadiationWatts/m^2 W/m2 Conditions
00:04 25.4 °F 17.8 °F 1015.8 in Calm     63 % 0.0 in 0.0 W/m2 CLR
00:09 25.3 °F 18.1 °F 1015.8 in Calm     64 % 0.0 in 0.0 W/m2 CLR
00:14 25.3 °F 18.2 °F 1015.8 in Calm     65 % 0.0 in 0.0 W/m2 CLR
00:19 25.2 °F 18.4 °F 1015.8 in Calm     66 % 0.0 in 0.0 W/m2 CLR
00:24 25.1 °F 18.3 °F 1015.8 in Calm     66 % 0.0 in 0.0 W/m2 CLR
00:29 25.0 °F 18.7 °F 1015.8 in Calm     68 % 0.0 in 0.0 W/m2 CLR
00:34 24.9 °F 18.6 °F 1015.8 in Calm     68 % 0.0 in 0.0 W/m2 CLR
00:39 24.8 °F 18.7 °F 1015.8 in Calm     69 % 0.0 in 0.0 W/m2 CLR
00:44 24.7 °F 18.7 °F 1015.5 in Calm     69 % 0.0 in 0.0 W/m2 CLR
00:49 24.7 °F 18.4 °F 1015.5 in Calm     68 % 0.0 in 0.0 W/m2 CLR
00:54 24.6 °F 18.6 °F 1015.5 in Calm     69 % 0.0 in 0.0 W/m2 CLR
00:59 24.6 °F 18.6 °F 1015.5 in Calm     69 % 0.0 in 0.0 W/m2 CLR
01:04 24.6 °F 18.6 °F 1015.5 in Calm     69 % 0.0 in 0.0 W/m2 CLR
01:09 24.6 °F 18.3 °F 1015.5 in Calm     68 % 0.0 in 0.0 W/m2 CLR
01:14 24.5 °F 18.4 °F 1015.5 in Calm     69 % 0.0 in 0.0 W/m2 CLR
01:19 24.5 °F 18.4 °F 1015.5 in Calm     69 % 0.0 in 0.0 W/m2 CLR
01:24 24.5 °F 18.4 °F 1015.5 in Calm     69 % 0.0 in 0.0 W/m2 CLR
01:29 24.4 °F 18.4 °F 1015.5 in Calm     69 % 0.0 in 0.0 W/m2 CLR
01:34 24.4 °F 18.3 °F 1015.5 in Calm     69 % 0.0 in 0.0 W/m2 CLR
01:39 24.3 °F 18.3 °F 1015.5 in Calm     69 % 0.0 in 0.0 W/m2 CLR
01:44 24.3 °F 18.3 °F 1015.5 in Calm     69 % 0.0 in 0.0 W/m2 CLR
01:49 24.2 °F 18.4 °F 1015.5 in Calm     70 % 0.0 in 0.0 W/m2 CLR
01:54 24.2 °F 18.3 °F 1015.5 in Calm     70 % 0.0 in 0.0 W/m2 CLR
01:59 24.1 °F 18.2 °F 1015.5 in Calm     70 % 0.0 in 0.0 W/m2 CLR
02:04 24.0 °F 18.2 °F 1015.5 in Calm     70 % 0.0 in 0.0 W/m2 CLR
02:09 23.9 °F 18.1 °F 1015.5 in Calm     70 % 0.0 in 0.0 W/m2 CLR
02:14 23.9 °F 18.1 °F 1015.5 in Calm     70 % 0.0 in 0.0 W/m2 CLR
02:19 23.9 °F 18.3 °F 1015.5 in Calm     71 % 0.0 in 0.0 W/m2 CLR
02:24 23.9 °F 18.4 °F 1015.1 in Calm     71 % 0.0 in 0.0 W/m2 CLR
02:29 23.9 °F 18.6 °F 1015.1 in Calm     72 % 0.0 in 0.0 W/m2 CLR
02:34 23.9 °F 18.4 °F 1015.1 in Calm     71 % 0.0 in 0.0 W/m2 CLR
02:40 23.9 °F 18.3 °F 1015.1 in Calm     71 % 0.0 in 0.0 W/m2 CLR
02:45 23.8 °F 18.4 °F 1015.1 in Calm     72 % 0.0 in 0.0 W/m2 CLR
02:50 23.7 °F 18.4 °F 1015.1 in Calm     72 % 0.0 in 0.0 W/m2 CLR
02:55 23.6 °F 18.5 °F 1015.1 in Calm     73 % 0.0 in 0.0 W/m2 CLR
03:00 23.5 °F 18.2 °F 1015.1 in Calm     72 % 0.0 in 0.0 W/m2 CLR
03:05 23.4 °F 18.1 °F 1015.1 in Calm     72 % 0.0 in 0.0 W/m2 CLR
03:10 23.4 °F 18.3 °F 1015.1 in Calm     73 % 0.0 in 0.0 W/m2 CLR
03:15 23.2 °F 18.3 °F 1015.1 in Calm     74 % 0.0 in 0.0 W/m2 CLR
03:20 23.2 °F 18.3 °F 1015.1 in Calm     74 % 0.0 in 0.0 W/m2 CLR
03:25 23.1 °F 17.5 °F 1015.1 in Calm     71 % 0.0 in 0.0 W/m2 CLR
03:30 22.9 °F 17.8 °F 1015.1 in Calm     73 % 0.0 in 0.0 W/m2 CLR
03:35 22.8 °F 18.2 °F 1015.1 in Calm     75 % 0.0 in 0.0 W/m2 CLR
03:40 22.9 °F 18.4 °F 1015.1 in Calm     76 % 0.0 in 0.0 W/m2 CLR
03:45 23.0 °F 18.3 °F 1015.1 in ENE 1.9 mph   75 % 0.0 in 0.0 W/m2 CLR
03:50 23.1 °F 18.4 °F 1015.1 in Calm     75 % 0.0 in 0.0 W/m2 CLR
03:55 23.1 °F 18.4 °F 1015.1 in Calm     75 % 0.0 in 0.0 W/m2 CLR
04:00 22.9 °F 18.1 °F 1015.1 in Calm     74 % 0.0 in 0.0 W/m2 CLR
04:05 22.7 °F 17.4 °F 1015.1 in Calm     72 % 0.0 in 0.0 W/m2 CLR
04:10 22.6 °F 17.4 °F 1015.1 in Calm     73 % 0.0 in 0.0 W/m2 CLR
04:15 22.4 °F 17.4 °F 1015.1 in Calm     73 % 0.0 in 0.0 W/m2 CLR
04:20 22.3 °F 17.2 °F 1015.1 in Calm     73 % 0.0 in 0.0 W/m2 CLR
04:25 22.2 °F 17.6 °F 1015.1 in Calm     75 % 0.0 in 0.0 W/m2 CLR
04:30 22.1 °F 17.2 °F 1015.1 in Calm     74 % 0.0 in 0.0 W/m2 CLR
04:35 21.9 °F 17.1 °F 1015.1 in Calm     74 % 0.0 in 0.0 W/m2 CLR
04:40 21.8 °F 17.0 °F 1015.1 in Calm     74 % 0.0 in 0.0 W/m2 CLR
04:45 21.8 °F 16.9 °F 1015.1 in Calm     74 % 0.0 in 0.0 W/m2 CLR
04:50 21.6 °F 17.0 °F 1015.1 in Calm     75 % 0.0 in 0.0 W/m2 CLR
04:55 21.6 °F 16.9 °F 1015.1 in Calm     75 % 0.0 in 0.0 W/m2 CLR
05:00 21.5 °F 17.1 °F 1015.1 in Calm     76 % 0.0 in 0.0 W/m2 CLR
05:05 21.4 °F 16.8 °F 1015.1 in Calm     75 % 0.0 in 0.0 W/m2 CLR
05:10 21.3 °F 16.7 °F 1015.1 in Calm     75 % 0.0 in 0.0 W/m2 CLR
05:15 21.2 °F 16.6 °F 1014.8 in Calm     75 % 0.0 in 0.0 W/m2 CLR
05:21 21.1 °F 16.5 °F 1015.1 in Calm     75 % 0.0 in 0.0 W/m2 CLR
05:22 21.1 °F 16.5 °F 1015.1 in Calm     75 % 0.0 in 0.0 W/m2 CLR
05:24 21.1 °F 16.4 °F 1014.8 in Calm     75 % 0.0 in 0.0 W/m2 CLR
05:27 21.0 °F 16.4 °F 1015.1 in Calm     75 % 0.0 in 0.0 W/m2 CLR
05:31 20.9 °F 16.6 °F 1015.1 in Calm     76 % 0.0 in 0.0 W/m2 CLR
05:36 20.9 °F 16.9 °F 1015.1 in Calm     78 % 0.0 in 0.0 W/m2 CLR
05:41 20.8 °F 16.7 °F 1014.8 in Calm     77 % 0.0 in 0.0 W/m2 CLR
05:46 20.8 °F 16.8 °F 1014.8 in Calm     78 % 0.0 in 0.0 W/m2 CLR
05:51 20.7 °F 16.7 °F 1014.8 in Calm     78 % 0.0 in 0.0 W/m2 CLR
05:56 20.7 °F 16.3 °F 1014.8 in Calm     76 % 0.0 in 0.0 W/m2 CLR
06:01 20.6 °F 16.2 °F 1015.1 in Calm     76 % 0.0 in 0.0 W/m2 CLR
06:06 20.4 °F 16.1 °F 1015.1 in Calm     76 % 0.0 in 0.0 W/m2 CLR
06:11 20.4 °F 16.2 °F 1015.1 in Calm     77 % 0.0 in 0.0 W/m2 CLR
06:16 20.3 °F 16.2 °F 1015.1 in Calm     77 % 0.0 in 0.0 W/m2 CLR
06:21 20.3 °F 16.4 °F 1015.1 in Calm     78 % 0.0 in 0.0 W/m2 CLR
06:26 20.2 °F 16.1 °F 1015.1 in Calm     77 % 0.0 in 0.0 W/m2 CLR
06:31 20.2 °F 16.2 °F 1015.1 in Calm     78 % 0.0 in 0.0 W/m2 CLR
06:36 20.2 °F 16.2 °F 1015.1 in Calm     78 % 0.0 in 0.0 W/m2 CLR
06:41 20.1 °F 16.1 °F 1015.1 in Calm     78 % 0.0 in 0.0 W/m2 CLR
06:46 20.0 °F 15.8 °F 1015.1 in Calm     77 % 0.0 in 0.0 W/m2 CLR
06:51 20.0 °F 16.1 °F 1015.1 in Calm     78 % 0.0 in 0.0 W/m2 CLR
06:56 19.9 °F 15.8 °F 1015.1 in Calm     77 % 0.0 in 0.0 W/m2 CLR
07:01 19.9 °F 15.9 °F 1015.1 in Calm     78 % 0.0 in 0.0 W/m2 CLR
07:06 19.9 °F 16.1 °F 1015.1 in Calm     79 % 0.0 in 0.0 W/m2 OVC
07:11 19.9 °F 16.4 °F 1015.1 in Calm     80 % 0.0 in 0.0 W/m2 OVC
07:16 19.9 °F 15.7 °F 1015.1 in Calm     77 % 0.0 in 5.0 W/m2 OVC
07:21 19.9 °F 15.6 °F 1015.1 in Calm     76 % 0.0 in 7.0 W/m2 BKN
07:26 19.8 °F 15.7 °F 1015.1 in Calm     77 % 0.0 in 11.0 W/m2 BKN
07:31 19.8 °F 15.6 °F 1015.1 in Calm     77 % 0.0 in 14.0 W/m2 BKN
07:36 19.7 °F 15.6 °F 1015.1 in Calm     77 % 0.0 in 19.0 W/m2 BKN
07:41 19.7 °F 15.6 °F 1015.1 in Calm     77 % 0.0 in 23.0 W/m2 BKN
07:46 19.7 °F 15.6 °F 1015.1 in Calm     77 % 0.0 in 28.0 W/m2 BKN
07:51 19.8 °F 15.7 °F 1015.1 in Calm     77 % 0.0 in 37.0 W/m2 BKN
07:56 20.0 °F 15.8 °F 1015.1 in Calm     77 % 0.0 in 44.0 W/m2 BKN
08:01 20.1 °F 15.9 °F 1015.1 in Calm     77 % 0.0 in 51.0 W/m2 SCT
08:06 20.3 °F 15.9 °F 1015.1 in Calm     76 % 0.0 in 65.0 W/m2 SCT
08:11 20.6 °F 15.9 °F 1015.1 in Calm     75 % 0.0 in 77.0 W/m2 FEW
08:16 20.8 °F 16.0 °F 1015.1 in Calm     74 % 0.0 in 91.0 W/m2 FEW
08:21 21.1 °F 16.2 °F 1015.1 in Calm     74 % 0.0 in 107.0 W/m2 CLR
08:26 21.3 °F 16.3 °F 1015.1 in Calm     73 % 0.0 in 121.0 W/m2 CLR
08:27 21.4 °F 16.3 °F 1015.1 in Calm     73 % 0.0 in 121.0 W/m2 CLR
08:32 21.7 °F 16.8 °F 1015.5 in Calm     74 % 0.0 in 137.0 W/m2 CLR
08:37 22.0 °F 16.9 °F 1015.5 in Calm     73 % 0.0 in 156.0 W/m2 CLR
08:42 22.3 °F 17.0 °F 1015.5 in Calm     72 % 0.0 in 172.0 W/m2 CLR
08:47 22.4 °F 16.7 °F 1015.1 in Calm     70 % 0.0 in 188.0 W/m2 CLR
08:52 22.5 °F 17.0 °F 1015.5 in Calm     71 % 0.0 in 202.0 W/m2 CLR
08:57 22.8 °F 17.1 °F 1015.5 in Calm     70 % 0.0 in 221.0 W/m2 CLR
09:02 23.3 °F 17.3 °F 1015.5 in Calm     69 % 0.0 in 237.0 W/m2 CLR
09:07 23.7 °F 17.4 °F 1015.5 in Calm     68 % 0.0 in 250.0 W/m2 CLR
09:12 23.9 °F 17.7 °F 1015.5 in Calm     68 % 0.0 in 264.0 W/m2 CLR
09:17 24.4 °F 17.9 °F 1015.5 in Calm     67 % 0.0 in 200.0 W/m2 CLR
09:22 24.8 °F 18.0 °F 1015.5 in Calm     66 % 0.0 in 116.0 W/m2 CLR
09:27 25.1 °F 18.3 °F 1015.5 in Calm     66 % 0.0 in 311.0 W/m2 CLR
09:32 25.2 °F 18.4 °F 1015.5 in Calm     66 % 0.0 in 330.0 W/m2 CLR
09:37 25.4 °F 18.6 °F 1015.5 in Calm     66 % 0.0 in 345.0 W/m2 CLR
09:42 25.6 °F 18.6 °F 1015.5 in Calm     65 % 0.0 in 359.0 W/m2 CLR
09:47 25.7 °F 18.7 °F 1015.5 in Calm     65 % 0.0 in 376.0 W/m2 CLR
09:52 25.9 °F 18.8 °F 1015.1 in Calm     65 % 0.0 in 396.0 W/m2 CLR
09:57 26.2 °F 19.1 °F 1015.1 in Calm     65 % 0.0 in 410.0 W/m2 CLR
10:02 26.4 °F 19.1 °F 1015.1 in Calm     64 % 0.0 in 420.0 W/m2 CLR
10:07 26.7 °F 19.1 °F 1015.1 in Calm     63 % 0.0 in 434.0 W/m2 CLR
10:12 27.2 °F 19.3 °F 1015.1 in Calm     62 % 0.0 in 450.0 W/m2 CLR
10:17 27.6 °F 19.3 °F 1015.1 in Calm     61 % 0.0 in 466.0 W/m2 CLR
10:22 27.9 °F 19.4 °F 1015.5 in ENE 7.4 mph 7.4 mph 60 % 0.0 in 478.0 W/m2 CLR
10:27 28.1 °F 19.3 °F 1015.5 in Calm     59 % 0.0 in 494.0 W/m2 CLR
10:32 28.1 °F 19.6 °F 1015.5 in ENE 1.9 mph 1.9 mph 60 % 0.0 in 506.0 W/m2 CLR
10:37 28.2 °F 19.7 °F 1015.5 in ENE 5.6 mph 5.6 mph 60 % 0.0 in 520.0 W/m2 CLR
10:42 28.3 °F 19.6 °F 1015.5 in ENE 5.6 mph   59 % 0.0 in 533.0 W/m2 CLR
10:47 28.6 °F 19.8 °F 1015.5 in ENE 5.6 mph 5.6 mph 59 % 0.0 in 547.0 W/m2 CLR
10:52 28.7 °F 19.7 °F 1015.5 in ENE 8.0 mph 8.0 mph 58 % 0.0 in 559.0 W/m2 CLR
10:57 28.8 °F 19.4 °F 1015.1 in ENE 9.7 mph 9.7 mph 57 % 0.0 in 575.0 W/m2 CLR
11:02 28.7 °F 19.7 °F 1015.1 in ENE 14.8 mph 14.8 mph 58 % 0.0 in 587.0 W/m2 CLR
11:07 28.9 °F 19.8 °F 1015.1 in ENE 11.1 mph 11.1 mph 58 % 0.0 in 596.0 W/m2 CLR
11:12 29.0 °F 19.6 °F 1015.5 in East 6.4 mph 6.4 mph 57 % 0.0 in 606.0 W/m2 CLR
11:17 29.0 °F 19.9 °F 1015.1 in ESE 13.0 mph 13.0 mph 58 % 0.0 in 619.0 W/m2 CLR
11:22 29.1 °F 20.0 °F 1015.1 in ENE 8.0 mph 8.0 mph 58 % 0.0 in 629.0 W/m2 CLR
11:27 29.3 °F 19.9 °F 1015.1 in NE 14.8 mph 14.8 mph 57 % 0.0 in 636.0 W/m2 CLR
11:32 29.6 °F 19.6 °F 1015.1 in North 11.3 mph 11.3 mph 55 % 0.0 in 649.0 W/m2 CLR
11:37 29.9 °F 19.9 °F 1014.8 in NNE 9.3 mph 9.3 mph 55 % 0.0 in 659.0 W/m2 CLR
11:42 30.2 °F 19.9 °F 1014.8 in East 7.4 mph 7.4 mph 54 % 0.0 in 673.0 W/m2 CLR
11:47 30.2 °F 19.8 °F 1014.8 in NE 5.6 mph   54 % 0.0 in 682.0 W/m2 CLR
11:53 30.3 °F 19.6 °F 1014.8 in NNE 5.6 mph   53 % 0.0 in 693.0 W/m2 CLR
11:58 30.4 °F 19.8 °F 1015.1 in East 7.4 mph 7.4 mph 53 % 0.0 in 703.0 W/m2 CLR
12:03 30.6 °F 19.6 °F 1014.8 in ENE 11.1 mph 11.1 mph 52 % 0.0 in 712.0 W/m2 CLR
12:08 30.8 °F 19.8 °F 1014.8 in East 6.4 mph 6.4 mph 52 % 0.0 in 722.0 W/m2 CLR
12:13 30.9 °F 19.6 °F 1014.8 in ENE 7.4 mph 7.4 mph 51 % 0.0 in 731.0 W/m2 CLR
12:18 30.7 °F 19.4 °F 1014.4 in ENE 13.0 mph 13.0 mph 51 % 0.0 in 740.0 W/m2 CLR
12:23 30.8 °F 19.5 °F 1014.4 in East 1.9 mph   51 % 0.0 in 745.0 W/m2 CLR
12:28 31.1 °F 19.7 °F 1014.4 in ENE 7.4 mph 7.4 mph 51 % 0.0 in 756.0 W/m2 CLR
12:33 31.4 °F 19.4 °F 1014.4 in SE 5.6 mph 5.6 mph 49 % 0.0 in 765.0 W/m2 CLR
12:38 31.6 °F 19.2 °F 1014.4 in South 5.6 mph 5.6 mph 48 % 0.0 in 770.0 W/m2 CLR
12:43 31.6 °F 19.2 °F 1014.1 in Calm     48 % 0.0 in 775.0 W/m2 CLR
12:48 31.8 °F 19.1 °F 1014.1 in Calm     47 % 0.0 in 786.0 W/m2 CLR
12:53 32.3 °F 19.2 °F 1014.1 in NE 1.9 mph 1.9 mph 46 % 0.0 in 791.0 W/m2 CLR
12:58 32.7 °F 19.2 °F 1014.1 in Calm     45 % 0.0 in 796.0 W/m2 CLR
13:03 33.0 °F 18.8 °F 1013.8 in NE 5.6 mph 5.6 mph 43 % 0.0 in 805.0 W/m2 CLR
13:08 33.0 °F 18.8 °F 1013.8 in Calm     43 % 0.0 in 803.0 W/m2 CLR
13:13 33.2 °F 18.9 °F 1013.8 in Calm     43 % 0.0 in 810.0 W/m2 CLR
13:18 33.3 °F 18.2 °F 1013.8 in West 1.9 mph 1.9 mph 41 % 0.0 in 814.0 W/m2 CLR
13:23 33.4 °F 18.4 °F 1013.4 in NNE 7.4 mph 7.4 mph 41 % 0.0 in 819.0 W/m2 CLR
13:28 33.6 °F 18.9 °F 1013.4 in Calm     42 % 0.0 in 821.0 W/m2 CLR
13:33 33.8 °F 18.7 °F 1013.4 in NE 5.6 mph 5.6 mph 41 % 0.0 in 828.0 W/m2 CLR
13:38 34.1 °F 19.0 °F 1013.4 in Calm     41 % 0.0 in 833.0 W/m2 CLR
13:43 34.3 °F 18.8 °F 1013.4 in NE 13.0 mph 13.0 mph 40 % 0.0 in 831.0 W/m2 CLR
13:48 34.3 °F 18.4 °F 1013.1 in North 5.6 mph 5.6 mph 39 % 0.0 in 835.0 W/m2 CLR
13:53 34.3 °F 18.4 °F 1013.4 in Calm     39 % 0.0 in 837.0 W/m2 CLR
13:58 34.6 °F 18.6 °F 1013.1 in East 7.4 mph 7.4 mph 39 % 0.0 in 837.0 W/m2 CLR
14:03 34.7 °F 18.7 °F 1013.1 in East 11.1 mph 11.1 mph 39 % 0.0 in 840.0 W/m2 CLR
14:08 34.6 °F 18.6 °F 1013.1 in East 8.0 mph 8.0 mph 39 % 0.0 in 838.0 W/m2 CLR
14:13 34.7 °F 18.7 °F 1013.1 in Calm     39 % 0.0 in 840.0 W/m2 CLR
14:18 35.1 °F 18.2 °F 1013.1 in ENE 11.1 mph 11.1 mph 37 % 0.0 in 830.0 W/m2 CLR
14:23 35.3 °F 18.4 °F 1012.8 in ENE 5.6 mph 5.6 mph 37 % 0.0 in 831.0 W/m2 CLR
14:28 35.6 °F 18.6 °F 1012.8 in ENE 16.7 mph 16.7 mph 37 % 0.0 in 833.0 W/m2 CLR
14:33 35.7 °F 17.9 °F 1012.8 in East 11.1 mph 11.1 mph 35 % 0.0 in 831.0 W/m2 CLR
14:38 35.5 °F 18.2 °F 1012.4 in ENE 7.4 mph 7.4 mph 36 % 0.0 in 830.0 W/m2 CLR
14:43 35.7 °F 17.9 °F 1012.4 in ESE 5.6 mph   35 % 0.0 in 830.0 W/m2 CLR
14:48 35.9 °F 17.6 °F 1012.4 in NE 1.9 mph   34 % 0.0 in 828.0 W/m2 CLR
14:53 36.3 °F 17.9 °F 1012.4 in NE 11.3 mph 11.3 mph 34 % 0.0 in 819.0 W/m2 CLR
14:58 36.4 °F 18.1 °F 1012.4 in ENE 13.0 mph 13.0 mph 34 % 0.0 in 819.0 W/m2 CLR
15:03 36.5 °F 17.6 °F 1012.4 in NE 9.3 mph 9.3 mph 33 % 0.0 in 809.0 W/m2 CLR
15:08 36.6 °F 17.7 °F 1012.4 in Calm     33 % 0.0 in 800.0 W/m2 CLR
15:13 36.9 °F 17.6 °F 1012.1 in NE 11.1 mph 11.1 mph 32 % 0.0 in 800.0 W/m2 CLR
15:18 37.1 °F 17.6 °F 1012.1 in ENE 16.1 mph 16.1 mph 32 % 0.0 in 789.0 W/m2 CLR
15:23 36.8 °F 17.4 °F 1012.1 in ENE 13.0 mph 13.0 mph 32 % 0.0 in 782.0 W/m2 CLR
15:28 36.7 °F 17.3 °F 1012.1 in NE 18.5 mph 18.5 mph 32 % 0.0 in 773.0 W/m2 CLR
15:33 36.8 °F 16.9 °F 1012.1 in NNE 9.3 mph 9.3 mph 31 % 0.0 in 773.0 W/m2 CLR
15:38 36.9 °F 17.5 °F 1012.1 in NE 18.5 mph 18.5 mph 32 % 0.0 in 765.0 W/m2 CLR
15:43 36.9 °F 17.6 °F 1012.1 in NNE 14.8 mph 14.8 mph 32 % 0.0 in 758.0 W/m2 CLR
15:48 37.0 °F 16.6 °F 1012.1 in ENE 12.9 mph 12.9 mph 30 % 0.0 in 751.0 W/m2 CLR
15:53 36.8 °F 16.9 °F 1012.1 in NE 8.0 mph 8.0 mph 31 % 0.0 in 744.0 W/m2 CLR
15:58 36.8 °F 16.4 °F 1012.1 in East 5.6 mph 5.6 mph 30 % 0.0 in 731.0 W/m2 CLR
16:03 36.9 °F 16.5 °F 1012.1 in NE 16.7 mph 16.7 mph 30 % 0.0 in 724.0 W/m2 CLR
16:08 37.1 °F 16.7 °F 1011.7 in NE 18.5 mph 18.5 mph 30 % 0.0 in 715.0 W/m2 CLR
16:13 37.1 °F 16.1 °F 1011.7 in ENE 16.7 mph 16.7 mph 29 % 0.0 in 703.0 W/m2 CLR
16:18 37.0 °F 16.6 °F 1011.7 in ENE 14.8 mph 14.8 mph 30 % 0.0 in 698.0 W/m2 CLR
16:23 36.8 °F 16.4 °F 1011.7 in NE 7.4 mph 7.4 mph 30 % 0.0 in 679.0 W/m2 CLR
16:28 36.9 °F 17.5 °F 1011.7 in NE 16.1 mph 16.1 mph 32 % 0.0 in 671.0 W/m2 CLR
16:33 36.7 °F 16.8 °F 1011.7 in NNE 24.1 mph 24.1 mph 31 % 0.0 in 659.0 W/m2 CLR
16:38 36.5 °F 16.7 °F 1011.7 in North 20.4 mph 20.4 mph 31 % 0.0 in 645.0 W/m2 CLR
16:43 36.6 °F 16.7 °F 1011.7 in NNW 18.5 mph 18.5 mph 31 % 0.0 in 628.0 W/m2 CLR
16:48 36.6 °F 16.7 °F 1011.7 in North 27.8 mph 27.8 mph 31 % 0.0 in 598.0 W/m2 CLR
16:53 36.6 °F 16.7 °F 1011.7 in NNE 9.3 mph 9.3 mph 31 % 0.0 in 555.0 W/m2 CLR
16:58 36.4 °F 16.6 °F 1011.7 in NNW 24.1 mph 24.1 mph 31 % 0.0 in 550.0 W/m2 CLR
17:03 36.5 °F 16.7 °F 1011.7 in NNW 20.9 mph 20.9 mph 31 % 0.0 in 432.0 W/m2 CLR
17:08 36.3 °F 16.5 °F 1011.7 in NNW 27.8 mph 27.8 mph 31 % 0.0 in 573.0 W/m2 CLR
17:13 36.3 °F 16.5 °F 1011.7 in North 24.1 mph 24.1 mph 31 % 0.0 in 276.0 W/m2 CLR
17:18 36.2 °F 16.3 °F 1011.7 in NE 9.3 mph   31 % 0.0 in 489.0 W/m2 CLR
17:23 36.1 °F 16.8 °F 1011.7 in ENE 11.1 mph 11.1 mph 32 % 0.0 in 214.0 W/m2 CLR
17:28 36.0 °F 17.2 °F 1011.7 in NNW 18.5 mph 18.5 mph 33 % 0.0 in 272.0 W/m2 CLR
17:29 36.0 °F 17.7 °F 1011.7 in North 11.1 mph 11.1 mph 34 % 0.0 in 272.0 W/m2 CLR
17:34 36.2 °F 17.4 °F 1011.7 in North 5.6 mph 5.6 mph 33 % 0.0 in 251.0 W/m2 CLR
17:39 36.1 °F 17.8 °F 1011.7 in North 13.0 mph 13.0 mph 34 % 0.0 in 253.0 W/m2 CLR
17:44 35.9 °F 17.6 °F 1011.7 in NNW 19.3 mph 19.3 mph 34 % 0.0 in 246.0 W/m2 CLR
17:49 35.9 °F 17.6 °F 1011.7 in North 9.7 mph 9.7 mph 34 % 0.0 in 476.0 W/m2 CLR
17:54 36.0 °F 17.7 °F 1011.7 in North 8.0 mph 8.0 mph 34 % 0.0 in 515.0 W/m2 CLR
17:59 36.1 °F 17.3 °F 1011.7 in NW 14.8 mph 14.8 mph 33 % 0.0 in 257.0 W/m2 CLR
18:04 36.1 °F 17.8 °F 1011.7 in NNW 9.3 mph   34 % 0.0 in 431.0 W/m2 CLR
18:09 36.2 °F 17.8 °F 1011.7 in NNE 14.8 mph 14.8 mph 34 % 0.0 in 404.0 W/m2 CLR
18:14 36.1 °F 17.7 °F 1011.7 in North 20.4 mph 20.4 mph 34 % 0.0 in 411.0 W/m2 CLR
18:19 36.3 °F 17.9 °F 1011.7 in NW 14.8 mph 14.8 mph 34 % 0.0 in 371.0 W/m2 CLR
18:24 36.3 °F 17.5 °F 1011.7 in NNW 9.3 mph 9.3 mph 33 % 0.0 in 186.0 W/m2 CLR
18:29 36.3 °F 17.9 °F 1011.7 in NE 11.3 mph 11.3 mph 34 % 0.0 in 316.0 W/m2 CLR
18:34 36.1 °F 17.8 °F 1011.7 in ENE 9.3 mph 9.3 mph 34 % 0.0 in 327.0 W/m2 CLR
18:39 35.9 °F 17.6 °F 1011.7 in North 17.7 mph 17.7 mph 34 % 0.0 in 348.0 W/m2 CLR
18:45 35.8 °F 17.1 °F 1012.1 in North 16.7 mph 16.7 mph 33 % 0.0 in 183.0 W/m2 CLR
18:50 35.6 °F 16.8 °F 1012.1 in North 18.5 mph 18.5 mph 33 % 0.0 in 285.0 W/m2 CLR
18:55 35.7 °F 17.8 °F 1012.1 in NNW 22.2 mph 22.2 mph 35 % 0.0 in 283.0 W/m2 CLR
19:00 35.7 °F 17.9 °F 1012.1 in ESE 8.0 mph 8.0 mph 35 % 0.0 in 192.0 W/m2 CLR
19:05 35.3 °F 17.9 °F 1012.1 in ENE 5.6 mph 5.6 mph 36 % 0.0 in 190.0 W/m2 CLR
19:10 34.9 °F 17.6 °F 1012.4 in Calm     36 % 0.0 in 134.0 W/m2 CLR
19:15 34.7 °F 17.8 °F 1012.4 in NNW 16.7 mph 16.7 mph 37 % 0.0 in 127.0 W/m2 CLR
19:20 34.4 °F 17.6 °F 1012.4 in North 27.8 mph 27.8 mph 37 % 0.0 in 123.0 W/m2 CLR
19:25 34.0 °F 17.7 °F 1012.4 in NNW 20.9 mph 20.9 mph 38 % 0.0 in 102.0 W/m2 CLR
19:30 33.7 °F 17.4 °F 1012.8 in North 27.8 mph 27.8 mph 38 % 0.0 in 91.0 W/m2 CLR
19:35 33.5 °F 17.7 °F 1012.8 in NNW 25.9 mph 25.9 mph 39 % 0.0 in 83.0 W/m2 CLR
19:40 33.2 °F 17.4 °F 1012.8 in North 29.6 mph 29.6 mph 39 % 0.0 in 76.0 W/m2 FEW
19:45 32.8 °F 17.4 °F 1012.8 in NNW 31.5 mph 31.5 mph 40 % 0.0 in 70.0 W/m2 FEW
19:50 32.4 °F 17.5 °F 1013.1 in NW 31.5 mph 31.5 mph 41 % 0.0 in 72.0 W/m2 FEW
19:55 32.0 °F 17.1 °F 1013.1 in NNW 40.2 mph 40.2 mph 41 % 0.0 in 79.0 W/m2 FEW
20:00 31.5 °F 17.1 °F 1013.1 in NNW 38.9 mph 38.9 mph 42 % 0.0 in 63.0 W/m2 SCT
20:05 31.1 °F 17.1 °F 1013.1 in NW 38.9 mph 38.9 mph 43 % 0.0 in 54.0 W/m2 SCT
20:10 30.9 °F 17.2 °F 1013.4 in NNW 37.0 mph 37.0 mph 44 % 0.0 in 46.0 W/m2 SCT
20:15 30.7 °F 17.0 °F 1013.4 in NW 44.4 mph 44.4 mph 44 % 0.0 in 40.0 W/m2 BKN
20:20 30.4 °F 17.2 °F 1013.4 in NNW 40.7 mph 40.7 mph 45 % 0.0 in 33.0 W/m2 BKN
20:25 30.2 °F 16.9 °F 1013.8 in NNW 35.2 mph 35.2 mph 45 % 0.0 in 28.0 W/m2 BKN
20:30 30.0 °F 16.8 °F 1013.8 in NW 42.6 mph 42.6 mph 45 % 0.0 in 26.0 W/m2 BKN
20:35 29.8 °F 16.6 °F 1013.8 in NW 31.5 mph 31.5 mph 45 % 0.0 in 23.0 W/m2 BKN
20:40 29.6 °F 16.4 °F 1013.8 in NW 42.6 mph 42.6 mph 45 % 0.0 in 16.0 W/m2 BKN
20:45 29.2 °F 16.1 °F 1014.1 in NW 37.0 mph 37.0 mph 45 % 0.0 in 12.0 W/m2 BKN
20:50 28.9 °F 15.8 °F 1014.1 in NW 33.8 mph 33.8 mph 45 % 0.0 in 7.0 W/m2 BKN
20:55 28.8 °F 15.7 °F 1014.1 in NW 27.8 mph 27.8 mph 45 % 0.0 in 0.0 W/m2 OVC
21:00 28.7 °F 15.6 °F 1014.4 in NNW 31.5 mph 31.5 mph 45 % 0.0 in 0.0 W/m2 CLR
21:05 28.6 °F 15.2 °F 1014.4 in NW 38.9 mph 38.9 mph 44 % 0.0 in 0.0 W/m2 CLR
21:10 28.5 °F 15.1 °F 1014.4 in NW 31.5 mph 31.5 mph 44 % 0.0 in 0.0 W/m2 CLR
21:15 28.4 °F 14.9 °F 1014.4 in NNW 35.2 mph 35.2 mph 44 % 0.0 in 0.0 W/m2 CLR
21:20 28.3 °F 14.9 °F 1014.8 in NW 29.6 mph 29.6 mph 44 % 0.0 in 0.0 W/m2 CLR
21:25 28.2 °F 14.8 °F 1014.8 in NNW 25.9 mph 25.9 mph 44 % 0.0 in 0.0 W/m2 CLR
21:30 28.2 °F 14.8 °F 1015.1 in NW 27.8 mph 27.8 mph 44 % 0.0 in 0.0 W/m2 CLR
21:35 28.0 °F 14.6 °F 1015.1 in WNW 31.5 mph 31.5 mph 44 % 0.0 in 0.0 W/m2 CLR
21:40 27.9 °F 14.5 °F 1015.1 in NNW 38.9 mph 38.9 mph 44 % 0.0 in 0.0 W/m2 CLR
21:45 27.8 °F 14.4 °F 1015.5 in NW 33.3 mph 33.3 mph 44 % 0.0 in 0.0 W/m2 CLR
21:50 27.7 °F 14.7 °F 1015.5 in WNW 31.5 mph 31.5 mph 45 % 0.0 in 0.0 W/m2 CLR
21:55 27.5 °F 14.5 °F 1015.5 in WNW 35.2 mph 35.2 mph 45 % 0.0 in 0.0 W/m2 CLR
22:00 27.4 °F 14.4 °F 1015.5 in WNW 41.8 mph 41.8 mph 45 % 0.0 in 0.0 W/m2 CLR
22:05 27.3 °F 14.7 °F 1015.5 in NW 37.0 mph 37.0 mph 46 % 0.0 in 0.0 W/m2 CLR
22:10 27.1 °F 14.5 °F 1015.5 in WNW 31.5 mph 31.5 mph 46 % 0.0 in 0.0 W/m2 CLR
22:15 27.1 °F 14.4 °F 1015.8 in WNW 18.5 mph 18.5 mph 46 % 0.0 in 0.0 W/m2 CLR
22:20 26.9 °F 14.3 °F 1015.8 in NW 24.1 mph 24.1 mph 46 % 0.0 in 0.0 W/m2 CLR
22:25 26.8 °F 14.2 °F 1015.8 in WNW 25.9 mph 25.9 mph 46 % 0.0 in 0.0 W/m2 CLR
22:30 26.8 °F 14.5 °F 1015.8 in West 31.5 mph 31.5 mph 47 % 0.0 in 0.0 W/m2 CLR
22:35 26.7 °F 14.4 °F 1015.8 in West 18.5 mph 18.5 mph 47 % 0.0 in 0.0 W/m2 CLR
22:40 26.6 °F 14.7 °F 1015.8 in West 22.5 mph 22.5 mph 48 % 0.0 in 0.0 W/m2 CLR
22:45 26.4 °F 14.6 °F 1015.8 in WNW 30.6 mph 30.6 mph 48 % 0.0 in 0.0 W/m2 CLR
22:51 26.3 °F 14.8 °F 1016.1 in West 22.2 mph 22.2 mph 49 % 0.0 in 0.0 W/m2 CLR
22:56 26.2 °F 14.6 °F 1016.1 in West 24.1 mph 24.1 mph 49 % 0.0 in 0.0 W/m2 CLR
23:01 26.1 °F 14.8 °F 1016.1 in West 24.1 mph 24.1 mph 50 % 0.0 in 0.0 W/m2 CLR
23:06 25.9 °F 14.7 °F 1016.1 in WNW 20.4 mph 20.4 mph 50 % 0.0 in 0.0 W/m2 CLR
23:11 25.9 °F 14.7 °F 1016.1 in West 18.5 mph 18.5 mph 50 % 0.0 in 0.0 W/m2 CLR
23:16 25.8 °F 14.6 °F 1016.1 in West 31.5 mph 31.5 mph 50 % 0.0 in 0.0 W/m2 CLR
23:21 25.7 °F 14.5 °F 1016.1 in West 22.2 mph 22.2 mph 50 % 0.0 in 0.0 W/m2 CLR
23:26 25.7 °F 14.8 °F 1016.1 in WNW 20.4 mph 20.4 mph 51 % 0.0 in 0.0 W/m2 CLR
23:31 25.6 °F 14.7 °F 1016.5 in WNW 27.8 mph 27.8 mph 51 % 0.0 in 0.0 W/m2 CLR
23:36 25.5 °F 14.6 °F 1016.5 in WSW 24.1 mph 24.1 mph 51 % 0.0 in 0.0 W/m2 CLR
23:41 25.4 °F 14.6 °F 1016.5 in West 31.5 mph 31.5 mph 51 % 0.0 in 0.0 W/m2 CLR
23:46 25.3 °F 14.8 °F 1016.5 in West 27.8 mph 27.8 mph 52 % 0.0 in 0.0 W/m2 CLR
23:51 25.2 °F 14.7 °F 1016.5 in West 24.1 mph 24.1 mph 52 % 0.0 in 0.0 W/m2 CLR
23:56 25.2 °F 14.6 °F 1016.5 in WNW 31.5 mph 31.5 mph 52 % 0.0 in 0.0 W/m2 CLR
Lo Temps de Massalio
Compliments of Weather Underground - 1.25 mb